sensor_id;sensor_type;location;lat;lon;timestamp;P1;durP1;ratioP1;P2;durP2;ratioP2
27333;SDS011;14817;57.104;-2.094;2023-05-16T00:01:04;6.60;;;0.77;;
27333;SDS011;14817;57.104;-2.094;2023-05-16T00:03:31;4.45;;;1.00;;
27333;SDS011;14817;57.104;-2.094;2023-05-16T00:05:58;8.13;;;1.38;;
27333;SDS011;14817;57.104;-2.094;2023-05-16T00:08:24;5.32;;;1.05;;
27333;SDS011;14817;57.104;-2.094;2023-05-16T00:10:52;4.68;;;0.88;;
27333;SDS011;14817;57.104;-2.094;2023-05-16T00:13:18;4.60;;;0.82;;
27333;SDS011;14817;57.104;-2.094;2023-05-16T00:15:51;7.05;;;1.17;;
27333;SDS011;14817;57.104;-2.094;2023-05-16T00:18:19;4.10;;;0.73;;
27333;SDS011;14817;57.104;-2.094;2023-05-16T00:20:48;4.13;;;1.00;;
27333;SDS011;14817;57.104;-2.094;2023-05-16T00:23:17;3.90;;;1.00;;
27333;SDS011;14817;57.104;-2.094;2023-05-16T00:25:44;3.10;;;0.90;;
27333;SDS011;14817;57.104;-2.094;2023-05-16T00:28:12;4.63;;;0.80;;
27333;SDS011;14817;57.104;-2.094;2023-05-16T00:30:39;5.50;;;1.05;;
27333;SDS011;14817;57.104;-2.094;2023-05-16T00:33:06;4.45;;;0.95;;
27333;SDS011;14817;57.104;-2.094;2023-05-16T00:35:33;7.25;;;0.95;;
27333;SDS011;14817;57.104;-2.094;2023-05-16T00:38:00;4.65;;;1.23;;
27333;SDS011;14817;57.104;-2.094;2023-05-16T00:40:26;6.40;;;1.17;;
27333;SDS011;14817;57.104;-2.094;2023-05-16T00:42:53;5.13;;;1.00;;
27333;SDS011;14817;57.104;-2.094;2023-05-16T00:45:20;7.35;;;1.15;;
27333;SDS011;14817;57.104;-2.094;2023-05-16T00:47:47;3.13;;;1.05;;
27333;SDS011;14817;57.104;-2.094;2023-05-16T00:50:15;6.65;;;1.52;;
27333;SDS011;14817;57.104;-2.094;2023-05-16T00:52:42;3.30;;;1.10;;
27333;SDS011;14817;57.104;-2.094;2023-05-16T00:55:09;7.50;;;1.50;;
27333;SDS011;14817;57.104;-2.094;2023-05-16T00:57:37;6.15;;;1.42;;
27333;SDS011;14817;57.104;-2.094;2023-05-16T01:00:04;9.25;;;1.95;;
27333;SDS011;14817;57.104;-2.094;2023-05-16T01:02:37;6.53;;;1.45;;
27333;SDS011;14817;57.104;-2.094;2023-05-16T01:05:06;5.20;;;1.50;;
27333;SDS011;14817;57.104;-2.094;2023-05-16T01:07:34;4.45;;;1.50;;
27333;SDS011;14817;57.104;-2.094;2023-05-16T01:10:02;6.95;;;1.73;;
27333;SDS011;14817;57.104;-2.094;2023-05-16T01:12:40;5.22;;;1.65;;
27333;SDS011;14817;57.104;-2.094;2023-05-16T01:15:17;10.27;;;1.83;;
27333;SDS011;14817;57.104;-2.094;2023-05-16T01:17:54;4.43;;;1.88;;
27333;SDS011;14817;57.104;-2.094;2023-05-16T01:26:15;4.80;;;1.92;;
27333;SDS011;14817;57.104;-2.094;2023-05-16T01:28:45;8.27;;;1.90;;
27333;SDS011;14817;57.104;-2.094;2023-05-16T01:31:13;5.07;;;1.70;;
27333;SDS011;14817;57.104;-2.094;2023-05-16T01:33:40;5.55;;;1.90;;
27333;SDS011;14817;57.104;-2.094;2023-05-16T01:36:16;6.75;;;2.10;;
27333;SDS011;14817;57.104;-2.094;2023-05-16T01:47:25;8.80;;;2.55;;
27333;SDS011;14817;57.104;-2.094;2023-05-16T01:50:07;7.32;;;1.98;;
27333;SDS011;14817;57.104;-2.094;2023-05-16T01:52:39;8.93;;;2.60;;
27333;SDS011;14817;57.104;-2.094;2023-05-16T01:55:09;17.40;;;3.00;;
27333;SDS011;14817;57.104;-2.094;2023-05-16T01:57:40;6.80;;;2.40;;
27333;SDS011;14817;57.104;-2.094;2023-05-16T02:00:08;13.63;;;3.47;;
27333;SDS011;14817;57.104;-2.094;2023-05-16T02:02:39;6.65;;;2.42;;
27333;SDS011;14817;57.104;-2.094;2023-05-16T02:05:07;5.90;;;2.30;;
27333;SDS011;14817;57.104;-2.094;2023-05-16T02:07:37;6.13;;;2.42;;
27333;SDS011;14817;57.104;-2.094;2023-05-16T02:10:04;6.35;;;2.10;;
27333;SDS011;14817;57.104;-2.094;2023-05-16T02:12:33;9.93;;;2.78;;
27333;SDS011;14817;57.104;-2.094;2023-05-16T02:15:01;8.30;;;2.83;;
27333;SDS011;14817;57.104;-2.094;2023-05-16T02:17:27;9.93;;;2.97;;
27333;SDS011;14817;57.104;-2.094;2023-05-16T02:19:55;12.77;;;2.35;;
27333;SDS011;14817;57.104;-2.094;2023-05-16T02:22:22;5.88;;;1.95;;
27333;SDS011;14817;57.104;-2.094;2023-05-16T02:24:49;15.18;;;3.85;;
27333;SDS011;14817;57.104;-2.094;2023-05-16T02:27:17;7.28;;;2.42;;
27333;SDS011;14817;57.104;-2.094;2023-05-16T02:29:44;5.50;;;2.03;;
27333;SDS011;14817;57.104;-2.094;2023-05-16T02:32:10;9.63;;;2.72;;
27333;SDS011;14817;57.104;-2.094;2023-05-16T02:34:38;9.45;;;2.30;;
27333;SDS011;14817;57.104;-2.094;2023-05-16T02:37:04;6.30;;;2.33;;
27333;SDS011;14817;57.104;-2.094;2023-05-16T02:39:31;9.77;;;2.53;;
27333;SDS011;14817;57.104;-2.094;2023-05-16T02:41:58;7.35;;;2.58;;
27333;SDS011;14817;57.104;-2.094;2023-05-16T02:44:25;7.97;;;2.50;;
27333;SDS011;14817;57.104;-2.094;2023-05-16T02:46:51;9.38;;;2.80;;
27333;SDS011;14817;57.104;-2.094;2023-05-16T02:49:19;8.73;;;2.42;;
27333;SDS011;14817;57.104;-2.094;2023-05-16T02:51:48;12.88;;;2.97;;
27333;SDS011;14817;57.104;-2.094;2023-05-16T02:54:15;10.18;;;3.10;;
27333;SDS011;14817;57.104;-2.094;2023-05-16T02:56:41;11.50;;;2.78;;
27333;SDS011;14817;57.104;-2.094;2023-05-16T02:59:09;11.45;;;3.75;;
27333;SDS011;14817;57.104;-2.094;2023-05-16T03:01:37;10.30;;;3.45;;
27333;SDS011;14817;57.104;-2.094;2023-05-16T03:04:04;13.48;;;3.33;;
27333;SDS011;14817;57.104;-2.094;2023-05-16T03:06:31;9.88;;;3.15;;
27333;SDS011;14817;57.104;-2.094;2023-05-16T03:08:58;13.02;;;3.60;;
27333;SDS011;14817;57.104;-2.094;2023-05-16T03:11:25;18.67;;;4.05;;
27333;SDS011;14817;57.104;-2.094;2023-05-16T03:13:54;13.05;;;3.95;;
27333;SDS011;14817;57.104;-2.094;2023-05-16T03:16:22;10.90;;;2.75;;
27333;SDS011;14817;57.104;-2.094;2023-05-16T03:18:50;8.98;;;3.17;;
27333;SDS011;14817;57.104;-2.094;2023-05-16T03:21:17;18.15;;;4.15;;
27333;SDS011;14817;57.104;-2.094;2023-05-16T03:23:43;10.52;;;3.20;;
27333;SDS011;14817;57.104;-2.094;2023-05-16T03:26:10;13.15;;;3.13;;
27333;SDS011;14817;57.104;-2.094;2023-05-16T03:28:37;6.97;;;2.30;;
27333;SDS011;14817;57.104;-2.094;2023-05-16T03:31:04;13.27;;;3.17;;
27333;SDS011;14817;57.104;-2.094;2023-05-16T03:33:31;9.75;;;2.80;;
27333;SDS011;14817;57.104;-2.094;2023-05-16T03:35:57;11.20;;;3.65;;
27333;SDS011;14817;57.104;-2.094;2023-05-16T03:38:24;7.45;;;3.08;;
27333;SDS011;14817;57.104;-2.094;2023-05-16T03:40:51;11.43;;;3.35;;
27333;SDS011;14817;57.104;-2.094;2023-05-16T03:43:18;11.63;;;4.15;;
27333;SDS011;14817;57.104;-2.094;2023-05-16T03:45:45;7.55;;;2.97;;
27333;SDS011;14817;57.104;-2.094;2023-05-16T03:48:12;7.63;;;2.85;;
27333;SDS011;14817;57.104;-2.094;2023-05-16T03:50:39;14.30;;;3.63;;
27333;SDS011;14817;57.104;-2.094;2023-05-16T03:53:06;8.90;;;3.15;;
27333;SDS011;14817;57.104;-2.094;2023-05-16T03:55:34;11.20;;;3.17;;
27333;SDS011;14817;57.104;-2.094;2023-05-16T03:58:01;18.60;;;3.17;;
27333;SDS011;14817;57.104;-2.094;2023-05-16T04:00:28;10.88;;;3.22;;
27333;SDS011;14817;57.104;-2.094;2023-05-16T04:02:54;7.85;;;3.10;;
27333;SDS011;14817;57.104;-2.094;2023-05-16T04:05:22;13.13;;;3.95;;
27333;SDS011;14817;57.104;-2.094;2023-05-16T04:07:49;12.20;;;3.08;;
27333;SDS011;14817;57.104;-2.094;2023-05-16T04:10:15;12.93;;;3.33;;
27333;SDS011;14817;57.104;-2.094;2023-05-16T04:12:43;11.75;;;3.03;;
27333;SDS011;14817;57.104;-2.094;2023-05-16T04:15:10;12.43;;;3.08;;
27333;SDS011;14817;57.104;-2.094;2023-05-16T04:17:37;11.90;;;3.38;;
27333;SDS011;14817;57.104;-2.094;2023-05-16T04:20:04;10.13;;;4.10;;
27333;SDS011;14817;57.104;-2.094;2023-05-16T04:22:32;10.40;;;3.20;;
27333;SDS011;14817;57.104;-2.094;2023-05-16T04:24:59;15.98;;;3.50;;
27333;SDS011;14817;57.104;-2.094;2023-05-16T04:27:26;12.55;;;3.55;;
27333;SDS011;14817;57.104;-2.094;2023-05-16T04:29:53;15.15;;;4.22;;
27333;SDS011;14817;57.104;-2.094;2023-05-16T04:32:19;15.82;;;3.92;;
27333;SDS011;14817;57.104;-2.094;2023-05-16T04:34:46;15.73;;;3.80;;
27333;SDS011;14817;57.104;-2.094;2023-05-16T04:37:15;14.20;;;3.00;;
27333;SDS011;14817;57.104;-2.094;2023-05-16T04:39:42;13.02;;;3.80;;
27333;SDS011;14817;57.104;-2.094;2023-05-16T04:42:13;8.15;;;3.53;;
27333;SDS011;14817;57.104;-2.094;2023-05-16T04:44:39;14.57;;;4.07;;
27333;SDS011;14817;57.104;-2.094;2023-05-16T04:47:07;11.57;;;3.67;;
27333;SDS011;14817;57.104;-2.094;2023-05-16T04:49:34;12.52;;;3.75;;
27333;SDS011;14817;57.104;-2.094;2023-05-16T04:52:01;14.00;;;3.58;;
27333;SDS011;14817;57.104;-2.094;2023-05-16T04:54:28;21.17;;;3.50;;
27333;SDS011;14817;57.104;-2.094;2023-05-16T04:56:55;13.80;;;3.22;;
27333;SDS011;14817;57.104;-2.094;2023-05-16T04:59:22;11.57;;;3.10;;
27333;SDS011;14817;57.104;-2.094;2023-05-16T05:01:49;8.25;;;3.42;;
27333;SDS011;14817;57.104;-2.094;2023-05-16T05:04:16;9.10;;;2.90;;
27333;SDS011;14817;57.104;-2.094;2023-05-16T05:06:43;12.13;;;2.90;;
27333;SDS011;14817;57.104;-2.094;2023-05-16T05:09:10;12.48;;;3.35;;
27333;SDS011;14817;57.104;-2.094;2023-05-16T05:11:37;11.93;;;2.95;;
27333;SDS011;14817;57.104;-2.094;2023-05-16T05:14:03;10.52;;;3.88;;
27333;SDS011;14817;57.104;-2.094;2023-05-16T05:16:30;13.35;;;3.78;;
27333;SDS011;14817;57.104;-2.094;2023-05-16T05:18:58;9.10;;;3.10;;
27333;SDS011;14817;57.104;-2.094;2023-05-16T05:21:25;10.75;;;3.47;;
27333;SDS011;14817;57.104;-2.094;2023-05-16T05:23:51;9.70;;;2.83;;
27333;SDS011;14817;57.104;-2.094;2023-05-16T05:26:18;8.13;;;2.72;;
27333;SDS011;14817;57.104;-2.094;2023-05-16T05:28:47;11.45;;;2.90;;
27333;SDS011;14817;57.104;-2.094;2023-05-16T05:31:29;9.50;;;3.17;;
27333;SDS011;14817;57.104;-2.094;2023-05-16T05:33:56;9.77;;;2.95;;
27333;SDS011;14817;57.104;-2.094;2023-05-16T05:36:23;9.43;;;3.08;;
27333;SDS011;14817;57.104;-2.094;2023-05-16T05:38:50;12.02;;;2.97;;
27333;SDS011;14817;57.104;-2.094;2023-05-16T05:41:16;11.35;;;3.42;;
27333;SDS011;14817;57.104;-2.094;2023-05-16T05:43:43;10.13;;;2.75;;
27333;SDS011;14817;57.104;-2.094;2023-05-16T05:46:10;11.52;;;3.05;;
27333;SDS011;14817;57.104;-2.094;2023-05-16T05:48:37;8.13;;;2.75;;
27333;SDS011;14817;57.104;-2.094;2023-05-16T05:51:04;12.18;;;3.03;;
27333;SDS011;14817;57.104;-2.094;2023-05-16T05:53:31;10.82;;;3.38;;
27333;SDS011;14817;57.104;-2.094;2023-05-16T05:55:57;7.03;;;2.40;;
27333;SDS011;14817;57.104;-2.094;2023-05-16T05:58:24;10.23;;;2.72;;
27333;SDS011;14817;57.104;-2.094;2023-05-16T06:00:51;11.32;;;3.00;;
27333;SDS011;14817;57.104;-2.094;2023-05-16T06:03:18;10.93;;;2.83;;
27333;SDS011;14817;57.104;-2.094;2023-05-16T06:05:46;9.35;;;2.78;;
27333;SDS011;14817;57.104;-2.094;2023-05-16T06:08:13;8.15;;;2.50;;
27333;SDS011;14817;57.104;-2.094;2023-05-16T06:10:40;7.45;;;2.20;;
27333;SDS011;14817;57.104;-2.094;2023-05-16T06:13:07;7.72;;;2.15;;
27333;SDS011;14817;57.104;-2.094;2023-05-16T06:15:34;8.68;;;2.60;;
27333;SDS011;14817;57.104;-2.094;2023-05-16T06:18:00;10.30;;;2.95;;
27333;SDS011;14817;57.104;-2.094;2023-05-16T06:20:27;8.95;;;2.70;;
27333;SDS011;14817;57.104;-2.094;2023-05-16T06:22:54;8.20;;;2.40;;
27333;SDS011;14817;57.104;-2.094;2023-05-16T06:25:21;9.95;;;2.70;;
27333;SDS011;14817;57.104;-2.094;2023-05-16T06:27:48;6.35;;;2.15;;
27333;SDS011;14817;57.104;-2.094;2023-05-16T06:30:15;7.00;;;2.25;;
27333;SDS011;14817;57.104;-2.094;2023-05-16T06:32:42;8.82;;;2.70;;
27333;SDS011;14817;57.104;-2.094;2023-05-16T06:35:09;9.68;;;2.78;;
27333;SDS011;14817;57.104;-2.094;2023-05-16T06:37:36;6.13;;;2.08;;
27333;SDS011;14817;57.104;-2.094;2023-05-16T06:40:03;7.72;;;2.20;;
27333;SDS011;14817;57.104;-2.094;2023-05-16T06:42:30;6.28;;;2.30;;
27333;SDS011;14817;57.104;-2.094;2023-05-16T06:44:57;6.60;;;2.30;;
27333;SDS011;14817;57.104;-2.094;2023-05-16T06:47:27;6.30;;;1.90;;
27333;SDS011;14817;57.104;-2.094;2023-05-16T06:49:55;6.17;;;2.07;;
27333;SDS011;14817;57.104;-2.094;2023-05-16T06:52:21;4.57;;;1.77;;
27333;SDS011;14817;57.104;-2.094;2023-05-16T06:54:48;4.38;;;2.13;;
27333;SDS011;14817;57.104;-2.094;2023-05-16T06:57:15;5.30;;;1.88;;
27333;SDS011;14817;57.104;-2.094;2023-05-16T06:59:42;4.93;;;1.80;;
27333;SDS011;14817;57.104;-2.094;2023-05-16T07:02:09;4.07;;;1.50;;
27333;SDS011;14817;57.104;-2.094;2023-05-16T07:04:36;4.32;;;1.38;;
27333;SDS011;14817;57.104;-2.094;2023-05-16T07:07:03;3.53;;;1.55;;
27333;SDS011;14817;57.104;-2.094;2023-05-16T07:09:32;5.93;;;1.45;;
27333;SDS011;14817;57.104;-2.094;2023-05-16T07:12:00;3.70;;;1.50;;
27333;SDS011;14817;57.104;-2.094;2023-05-16T07:14:26;6.50;;;1.80;;
27333;SDS011;14817;57.104;-2.094;2023-05-16T07:16:53;7.00;;;1.20;;
27333;SDS011;14817;57.104;-2.094;2023-05-16T07:19:24;3.05;;;1.23;;
27333;SDS011;14817;57.104;-2.094;2023-05-16T07:21:51;6.53;;;1.35;;
27333;SDS011;14817;57.104;-2.094;2023-05-16T07:24:19;4.47;;;1.20;;
27333;SDS011;14817;57.104;-2.094;2023-05-16T07:26:45;3.80;;;1.00;;
27333;SDS011;14817;57.104;-2.094;2023-05-16T07:29:12;3.97;;;1.38;;
27333;SDS011;14817;57.104;-2.094;2023-05-16T07:31:39;3.00;;;1.20;;
27333;SDS011;14817;57.104;-2.094;2023-05-16T07:34:06;3.30;;;1.20;;
27333;SDS011;14817;57.104;-2.094;2023-05-16T07:36:33;3.10;;;1.00;;
27333;SDS011;14817;57.104;-2.094;2023-05-16T07:39:00;3.33;;;0.85;;
27333;SDS011;14817;57.104;-2.094;2023-05-16T07:41:28;2.20;;;0.95;;
27333;SDS011;14817;57.104;-2.094;2023-05-16T07:43:55;3.47;;;1.15;;
27333;SDS011;14817;57.104;-2.094;2023-05-16T07:46:24;4.45;;;1.45;;
27333;SDS011;14817;57.104;-2.094;2023-05-16T07:48:51;3.00;;;0.98;;
27333;SDS011;14817;57.104;-2.094;2023-05-16T07:51:18;4.50;;;1.27;;
27333;SDS011;14817;57.104;-2.094;2023-05-16T07:53:45;3.53;;;0.93;;
27333;SDS011;14817;57.104;-2.094;2023-05-16T07:56:12;3.05;;;1.00;;
27333;SDS011;14817;57.104;-2.094;2023-05-16T07:58:39;3.55;;;1.00;;
27333;SDS011;14817;57.104;-2.094;2023-05-16T08:01:07;2.20;;;1.10;;
27333;SDS011;14817;57.104;-2.094;2023-05-16T08:03:34;2.28;;;1.20;;
27333;SDS011;14817;57.104;-2.094;2023-05-16T08:06:01;2.30;;;1.02;;
27333;SDS011;14817;57.104;-2.094;2023-05-16T08:08:29;7.78;;;1.90;;
27333;SDS011;14817;57.104;-2.094;2023-05-16T08:10:56;6.35;;;1.52;;
27333;SDS011;14817;57.104;-2.094;2023-05-16T08:13:22;4.07;;;1.63;;
27333;SDS011;14817;57.104;-2.094;2023-05-16T08:15:49;2.22;;;1.00;;
27333;SDS011;14817;57.104;-2.094;2023-05-16T08:18:16;4.07;;;1.45;;
27333;SDS011;14817;57.104;-2.094;2023-05-16T08:20:47;3.72;;;1.42;;
27333;SDS011;14817;57.104;-2.094;2023-05-16T08:23:14;3.17;;;1.33;;
27333;SDS011;14817;57.104;-2.094;2023-05-16T08:25:41;2.95;;;1.45;;
27333;SDS011;14817;57.104;-2.094;2023-05-16T08:28:08;4.40;;;1.42;;
27333;SDS011;14817;57.104;-2.094;2023-05-16T08:30:34;3.90;;;1.58;;
27333;SDS011;14817;57.104;-2.094;2023-05-16T08:33:01;4.72;;;1.63;;
27333;SDS011;14817;57.104;-2.094;2023-05-16T08:35:30;2.05;;;1.17;;
27333;SDS011;14817;57.104;-2.094;2023-05-16T08:37:58;3.90;;;1.50;;
27333;SDS011;14817;57.104;-2.094;2023-05-16T08:40:24;4.72;;;1.55;;
27333;SDS011;14817;57.104;-2.094;2023-05-16T08:42:51;3.95;;;1.40;;
27333;SDS011;14817;57.104;-2.094;2023-05-16T08:45:19;4.68;;;1.70;;
27333;SDS011;14817;57.104;-2.094;2023-05-16T08:47:48;3.85;;;1.85;;
27333;SDS011;14817;57.104;-2.094;2023-05-16T08:50:17;5.03;;;1.77;;
27333;SDS011;14817;57.104;-2.094;2023-05-16T08:52:43;4.28;;;1.42;;
27333;SDS011;14817;57.104;-2.094;2023-05-16T08:55:18;4.15;;;1.80;;
27333;SDS011;14817;57.104;-2.094;2023-05-16T08:57:47;3.42;;;1.40;;
27333;SDS011;14817;57.104;-2.094;2023-05-16T09:00:16;2.87;;;1.53;;
27333;SDS011;14817;57.104;-2.094;2023-05-16T09:02:44;3.17;;;1.42;;
27333;SDS011;14817;57.104;-2.094;2023-05-16T09:05:13;3.75;;;1.45;;
27333;SDS011;14817;57.104;-2.094;2023-05-16T09:07:43;5.25;;;1.88;;
27333;SDS011;14817;57.104;-2.094;2023-05-16T09:10:11;3.85;;;1.67;;
27333;SDS011;14817;57.104;-2.094;2023-05-16T09:12:39;3.03;;;1.42;;
27333;SDS011;14817;57.104;-2.094;2023-05-16T09:15:07;3.88;;;1.65;;
27333;SDS011;14817;57.104;-2.094;2023-05-16T09:17:44;3.50;;;1.23;;
27333;SDS011;14817;57.104;-2.094;2023-05-16T09:22:40;4.05;;;1.67;;
27333;SDS011;14817;57.104;-2.094;2023-05-16T09:25:17;3.70;;;1.48;;
27333;SDS011;14817;57.104;-2.094;2023-05-16T09:27:56;4.88;;;1.77;;
27333;SDS011;14817;57.104;-2.094;2023-05-16T09:30:27;3.80;;;1.40;;
27333;SDS011;14817;57.104;-2.094;2023-05-16T09:32:57;4.65;;;1.58;;
27333;SDS011;14817;57.104;-2.094;2023-05-16T09:35:24;3.70;;;1.90;;
27333;SDS011;14817;57.104;-2.094;2023-05-16T09:38:14;4.70;;;1.83;;
27333;SDS011;14817;57.104;-2.094;2023-05-16T09:40:43;3.30;;;1.50;;
27333;SDS011;14817;57.104;-2.094;2023-05-16T09:43:11;3.08;;;2.10;;
27333;SDS011;14817;57.104;-2.094;2023-05-16T09:45:44;4.07;;;1.90;;
27333;SDS011;14817;57.104;-2.094;2023-05-16T09:48:13;2.97;;;1.63;;
27333;SDS011;14817;57.104;-2.094;2023-05-16T09:50:46;4.43;;;1.70;;
27333;SDS011;14817;57.104;-2.094;2023-05-16T09:53:23;3.45;;;1.60;;
27333;SDS011;14817;57.104;-2.094;2023-05-16T09:56:14;4.05;;;1.77;;
27333;SDS011;14817;57.104;-2.094;2023-05-16T09:58:42;6.28;;;2.08;;
27333;SDS011;14817;57.104;-2.094;2023-05-16T10:01:10;5.47;;;1.88;;
27333;SDS011;14817;57.104;-2.094;2023-05-16T10:03:38;7.38;;;2.30;;
27333;SDS011;14817;57.104;-2.094;2023-05-16T10:06:06;4.72;;;2.10;;
27333;SDS011;14817;57.104;-2.094;2023-05-16T10:08:34;5.93;;;2.05;;
27333;SDS011;14817;57.104;-2.094;2023-05-16T10:11:02;3.85;;;1.27;;
27333;SDS011;14817;57.104;-2.094;2023-05-16T10:13:33;3.38;;;1.33;;
27333;SDS011;14817;57.104;-2.094;2023-05-16T10:16:11;2.40;;;1.30;;
27333;SDS011;14817;57.104;-2.094;2023-05-16T10:18:41;3.17;;;1.60;;
27333;SDS011;14817;57.104;-2.094;2023-05-16T10:21:12;4.60;;;2.10;;
27333;SDS011;14817;57.104;-2.094;2023-05-16T10:23:41;4.82;;;2.38;;
27333;SDS011;14817;57.104;-2.094;2023-05-16T10:26:10;4.50;;;1.92;;
27333;SDS011;14817;57.104;-2.094;2023-05-16T10:28:39;5.72;;;2.30;;
27333;SDS011;14817;57.104;-2.094;2023-05-16T10:31:07;4.95;;;2.08;;
27333;SDS011;14817;57.104;-2.094;2023-05-16T10:33:35;3.08;;;1.67;;
27333;SDS011;14817;57.104;-2.094;2023-05-16T10:36:02;4.43;;;1.48;;
27333;SDS011;14817;57.104;-2.094;2023-05-16T10:38:31;4.50;;;1.58;;
27333;SDS011;14817;57.104;-2.094;2023-05-16T10:40:59;4.95;;;0.98;;
27333;SDS011;14817;57.104;-2.094;2023-05-16T10:43:29;5.60;;;1.27;;
27333;SDS011;14817;57.104;-2.094;2023-05-16T10:46:07;7.90;;;1.95;;
27333;SDS011;14817;57.104;-2.094;2023-05-16T10:48:39;9.30;;;1.67;;
27333;SDS011;14817;57.104;-2.094;2023-05-16T10:54:04;11.90;;;1.75;;
27333;SDS011;14817;57.104;-2.094;2023-05-16T10:56:33;10.00;;;1.88;;
27333;SDS011;14817;57.104;-2.094;2023-05-16T10:59:01;9.60;;;2.42;;
27333;SDS011;14817;57.104;-2.094;2023-05-16T11:01:29;8.35;;;1.90;;
27333;SDS011;14817;57.104;-2.094;2023-05-16T11:06:29;9.00;;;2.25;;
27333;SDS011;14817;57.104;-2.094;2023-05-16T11:14:19;8.63;;;2.28;;
27333;SDS011;14817;57.104;-2.094;2023-05-16T11:19:39;9.45;;;2.05;;
27333;SDS011;14817;57.104;-2.094;2023-05-16T11:24:48;16.13;;;2.58;;
27333;SDS011;14817;57.104;-2.094;2023-05-16T11:32:34;20.20;;;3.43;;
27333;SDS011;14817;57.104;-2.094;2023-05-16T11:35:02;18.13;;;3.70;;
27333;SDS011;14817;57.104;-2.094;2023-05-16T11:37:30;16.02;;;3.47;;
27333;SDS011;14817;57.104;-2.094;2023-05-16T11:39:58;19.13;;;3.30;;
27333;SDS011;14817;57.104;-2.094;2023-05-16T11:42:36;13.32;;;2.80;;
27333;SDS011;14817;57.104;-2.094;2023-05-16T11:45:05;19.33;;;3.83;;
27333;SDS011;14817;57.104;-2.094;2023-05-16T11:47:36;13.43;;;3.50;;
27333;SDS011;14817;57.104;-2.094;2023-05-16T11:50:10;19.08;;;3.92;;
27333;SDS011;14817;57.104;-2.094;2023-05-16T11:52:42;23.70;;;4.13;;
27333;SDS011;14817;57.104;-2.094;2023-05-16T11:55:12;15.03;;;2.87;;
27333;SDS011;14817;57.104;-2.094;2023-05-16T11:57:54;19.58;;;3.13;;
27333;SDS011;14817;57.104;-2.094;2023-05-16T12:00:23;14.30;;;3.42;;
27333;SDS011;14817;57.104;-2.094;2023-05-16T12:03:00;8.93;;;2.72;;
27333;SDS011;14817;57.104;-2.094;2023-05-16T12:05:32;16.58;;;3.13;;
27333;SDS011;14817;57.104;-2.094;2023-05-16T12:08:01;11.88;;;3.75;;
27333;SDS011;14817;57.104;-2.094;2023-05-16T12:10:30;14.32;;;2.88;;
27333;SDS011;14817;57.104;-2.094;2023-05-16T12:13:00;20.55;;;3.60;;
27333;SDS011;14817;57.104;-2.094;2023-05-16T12:15:29;14.98;;;2.63;;
27333;SDS011;14817;57.104;-2.094;2023-05-16T12:17:56;15.18;;;2.85;;
27333;SDS011;14817;57.104;-2.094;2023-05-16T12:20:24;11.82;;;2.80;;
27333;SDS011;14817;57.104;-2.094;2023-05-16T12:22:51;11.93;;;2.65;;
27333;SDS011;14817;57.104;-2.094;2023-05-16T12:25:25;10.05;;;2.67;;
27333;SDS011;14817;57.104;-2.094;2023-05-16T12:28:02;16.20;;;3.28;;
27333;SDS011;14817;57.104;-2.094;2023-05-16T12:30:30;11.23;;;2.88;;
27333;SDS011;14817;57.104;-2.094;2023-05-16T12:33:02;5.75;;;1.75;;
27333;SDS011;14817;57.104;-2.094;2023-05-16T12:35:34;17.08;;;3.15;;
27333;SDS011;14817;57.104;-2.094;2023-05-16T12:38:07;7.00;;;2.10;;
27333;SDS011;14817;57.104;-2.094;2023-05-16T12:40:35;10.35;;;2.30;;
27333;SDS011;14817;57.104;-2.094;2023-05-16T12:43:03;7.68;;;2.13;;
27333;SDS011;14817;57.104;-2.094;2023-05-16T12:45:29;9.38;;;2.05;;
27333;SDS011;14817;57.104;-2.094;2023-05-16T12:48:03;11.38;;;2.22;;
27333;SDS011;14817;57.104;-2.094;2023-05-16T12:50:32;9.32;;;2.22;;
27333;SDS011;14817;57.104;-2.094;2023-05-16T12:52:59;8.70;;;1.92;;
27333;SDS011;14817;57.104;-2.094;2023-05-16T12:55:26;13.32;;;2.55;;
27333;SDS011;14817;57.104;-2.094;2023-05-16T12:57:54;7.03;;;2.28;;
27333;SDS011;14817;57.104;-2.094;2023-05-16T13:00:22;8.10;;;2.00;;
27333;SDS011;14817;57.104;-2.094;2023-05-16T13:02:49;10.93;;;2.50;;
27333;SDS011;14817;57.104;-2.094;2023-05-16T13:05:16;9.65;;;2.47;;
27333;SDS011;14817;57.104;-2.094;2023-05-16T13:07:43;9.88;;;2.08;;
27333;SDS011;14817;57.104;-2.094;2023-05-16T13:10:10;11.63;;;2.33;;
27333;SDS011;14817;57.104;-2.094;2023-05-16T13:12:37;6.50;;;2.20;;
27333;SDS011;14817;57.104;-2.094;2023-05-16T13:15:06;11.70;;;2.10;;
27333;SDS011;14817;57.104;-2.094;2023-05-16T13:17:35;11.90;;;2.97;;
27333;SDS011;14817;57.104;-2.094;2023-05-16T13:20:06;8.63;;;2.17;;
27333;SDS011;14817;57.104;-2.094;2023-05-16T13:22:39;10.50;;;2.08;;
27333;SDS011;14817;57.104;-2.094;2023-05-16T13:25:06;5.43;;;1.60;;
27333;SDS011;14817;57.104;-2.094;2023-05-16T13:27:34;6.45;;;1.80;;
27333;SDS011;14817;57.104;-2.094;2023-05-16T13:30:01;11.45;;;2.63;;
27333;SDS011;14817;57.104;-2.094;2023-05-16T13:32:29;12.82;;;2.47;;
27333;SDS011;14817;57.104;-2.094;2023-05-16T13:34:56;12.85;;;2.40;;
27333;SDS011;14817;57.104;-2.094;2023-05-16T13:37:23;9.52;;;2.42;;
27333;SDS011;14817;57.104;-2.094;2023-05-16T13:39:50;6.75;;;2.15;;
27333;SDS011;14817;57.104;-2.094;2023-05-16T13:42:20;6.63;;;1.92;;
27333;SDS011;14817;57.104;-2.094;2023-05-16T13:44:47;6.57;;;1.48;;
27333;SDS011;14817;57.104;-2.094;2023-05-16T13:47:14;7.22;;;1.50;;
27333;SDS011;14817;57.104;-2.094;2023-05-16T13:49:41;9.82;;;2.30;;
27333;SDS011;14817;57.104;-2.094;2023-05-16T13:52:07;8.20;;;2.45;;
27333;SDS011;14817;57.104;-2.094;2023-05-16T13:54:34;7.18;;;2.05;;
27333;SDS011;14817;57.104;-2.094;2023-05-16T13:57:04;9.90;;;1.90;;
27333;SDS011;14817;57.104;-2.094;2023-05-16T13:59:31;9.20;;;2.03;;
27333;SDS011;14817;57.104;-2.094;2023-05-16T14:02:17;9.85;;;1.88;;
27333;SDS011;14817;57.104;-2.094;2023-05-16T14:04:44;9.63;;;2.03;;
27333;SDS011;14817;57.104;-2.094;2023-05-16T14:07:15;10.55;;;2.05;;
27333;SDS011;14817;57.104;-2.094;2023-05-16T14:09:41;7.38;;;1.85;;
27333;SDS011;14817;57.104;-2.094;2023-05-16T14:12:09;9.55;;;2.42;;
27333;SDS011;14817;57.104;-2.094;2023-05-16T14:14:36;7.43;;;2.20;;
27333;SDS011;14817;57.104;-2.094;2023-05-16T14:17:03;5.38;;;1.92;;
27333;SDS011;14817;57.104;-2.094;2023-05-16T14:19:30;8.70;;;2.33;;
27333;SDS011;14817;57.104;-2.094;2023-05-16T14:21:57;7.82;;;2.33;;
27333;SDS011;14817;57.104;-2.094;2023-05-16T14:24:24;9.18;;;2.63;;
27333;SDS011;14817;57.104;-2.094;2023-05-16T14:26:51;13.40;;;2.00;;
27333;SDS011;14817;57.104;-2.094;2023-05-16T14:29:23;10.43;;;2.22;;
27333;SDS011;14817;57.104;-2.094;2023-05-16T14:31:54;13.68;;;2.63;;
27333;SDS011;14817;57.104;-2.094;2023-05-16T14:34:21;12.65;;;2.42;;
27333;SDS011;14817;57.104;-2.094;2023-05-16T14:36:49;9.75;;;2.22;;
27333;SDS011;14817;57.104;-2.094;2023-05-16T14:39:16;6.93;;;2.03;;
27333;SDS011;14817;57.104;-2.094;2023-05-16T14:41:43;8.18;;;2.58;;
27333;SDS011;14817;57.104;-2.094;2023-05-16T14:44:09;10.93;;;2.90;;
27333;SDS011;14817;57.104;-2.094;2023-05-16T14:46:36;6.13;;;1.83;;
27333;SDS011;14817;57.104;-2.094;2023-05-16T14:49:03;7.72;;;2.30;;
27333;SDS011;14817;57.104;-2.094;2023-05-16T14:51:30;8.40;;;1.98;;
27333;SDS011;14817;57.104;-2.094;2023-05-16T14:53:57;9.35;;;1.98;;
27333;SDS011;14817;57.104;-2.094;2023-05-16T14:56:24;8.10;;;2.03;;
27333;SDS011;14817;57.104;-2.094;2023-05-16T14:58:53;13.77;;;2.67;;
27333;SDS011;14817;57.104;-2.094;2023-05-16T15:01:21;10.07;;;2.35;;
27333;SDS011;14817;57.104;-2.094;2023-05-16T15:03:48;10.43;;;2.10;;
27333;SDS011;14817;57.104;-2.094;2023-05-16T15:06:21;11.60;;;2.65;;
27333;SDS011;14817;57.104;-2.094;2023-05-16T15:08:49;14.88;;;2.72;;
27333;SDS011;14817;57.104;-2.094;2023-05-16T15:11:16;11.50;;;2.83;;
27333;SDS011;14817;57.104;-2.094;2023-05-16T15:13:43;9.75;;;2.45;;
27333;SDS011;14817;57.104;-2.094;2023-05-16T15:16:09;11.80;;;2.65;;